Time;durP1;ratioP1;P1;durP2;ratioP2;P2;SDS_P1;SDS_P2;PMS_P1;PMS_P2;Temp;Humidity;BMP_temperature;BMP_pressure;BME280_temperature;BME280_humidity;BME280_pressure;Samples;Min_cycle;Max_cycle;Signal;HPM_P1;HPM_P2
2021/04/04 00:00:30;;;;;;;19.27;3.53;;;;;;;;;;4984903;28;20551;-75
2021/04/04 00:02:56;;;;;;;34.60;4.55;;;;;;;;;;4986560;28;20057;-74
2021/04/04 00:05:22;;;;;;;22.08;3.28;;;;;;;;;;4986091;28;20023;-74
2021/04/04 00:07:49;;;;;;;23.67;5.03;;;;;;;;;;4985329;28;20030;-76
2021/04/04 00:10:15;;;;;;;16.35;3.97;;;;;;;;;;4979109;28;20042;-76
2021/04/04 00:12:41;;;;;;;26.58;6.32;;;;;;;;;;4981600;28;20030;-72
2021/04/04 00:15:11;;;;;;;24.38;3.65;;;;;;;;;;4985123;28;20034;-72
2021/04/04 00:17:37;;;;;;;17.15;3.58;;;;;;;;;;4969202;28;20035;-77
2021/04/04 00:20:10;;;;;;;19.52;4.07;;;;;;;;;;4972350;28;20023;-75
2021/04/04 00:22:36;;;;;;;25.05;5.40;;;;;;;;;;4982331;28;20037;-75
2021/04/04 00:25:05;;;;;;;24.70;3.53;;;;;;;;;;4973689;28;20015;-75
2021/04/04 00:27:31;;;;;;;16.33;3.38;;;;;;;;;;4983595;28;20389;-76
2021/04/04 00:29:57;;;;;;;13.60;3.70;;;;;;;;;;4981376;28;20023;-74
2021/04/04 00:32:23;;;;;;;26.50;4.45;;;;;;;;;;4985444;28;20042;-77
2021/04/04 00:34:49;;;;;;;23.00;3.75;;;;;;;;;;4985110;28;20419;-76
2021/04/04 00:37:15;;;;;;;17.10;3.33;;;;;;;;;;4983042;28;20038;-77
2021/04/04 00:39:41;;;;;;;15.30;3.35;;;;;;;;;;4970123;28;20029;-75
2021/04/04 00:42:07;;;;;;;24.02;4.25;;;;;;;;;;4982637;28;20023;-75
2021/04/04 00:44:33;;;;;;;23.85;3.92;;;;;;;;;;4984682;28;20022;-75
2021/04/04 00:46:59;;;;;;;19.50;3.72;;;;;;;;;;4981380;28;20049;-76
2021/04/04 00:49:25;;;;;;;16.30;3.38;;;;;;;;;;4969761;28;20034;-76
2021/04/04 00:51:52;;;;;;;20.90;3.97;;;;;;;;;;4982417;28;20014;-78
2021/04/04 00:54:18;;;;;;;24.50;5.28;;;;;;;;;;4983838;28;20056;-77
2021/04/04 00:56:45;;;;;;;24.50;4.63;;;;;;;;;;4972257;28;20033;-76
2021/04/04 00:59:11;;;;;;;18.38;4.95;;;;;;;;;;4985944;28;20026;-77
2021/04/04 01:01:37;;;;;;;24.08;3.50;;;;;;;;;;4989460;28;20504;-76
2021/04/04 01:04:03;;;;;;;22.27;4.10;;;;;;;;;;4989971;28;20081;-77
2021/04/04 01:06:30;;;;;;;22.85;4.43;;;;;;;;;;4988559;28;20019;-77
2021/04/04 01:08:56;;;;;;;14.48;3.70;;;;;;;;;;4989196;28;20022;-76
2021/04/04 01:11:27;;;;;;;22.98;4.45;;;;;;;;;;4984512;28;20026;-76
2021/04/04 01:14:02;;;;;;;19.45;3.38;;;;;;;;;;4984018;28;20118;-77
2021/04/04 01:16:34;;;;;;;15.23;3.13;;;;;;;;;;4985057;28;20026;-77
2021/04/04 01:19:07;;;;;;;14.23;3.33;;;;;;;;;;4984940;28;20038;-74
2021/04/04 01:21:38;;;;;;;30.02;5.63;;;;;;;;;;4983021;28;20026;-76
2021/04/04 01:24:11;;;;;;;26.43;4.67;;;;;;;;;;4984518;28;20022;-76
2021/04/04 01:26:45;;;;;;;15.52;3.83;;;;;;;;;;4985741;28;20029;-73
2021/04/04 01:29:12;;;;;;;21.65;4.40;;;;;;;;;;4991521;28;20027;-76
2021/04/04 01:31:38;;;;;;;23.67;3.75;;;;;;;;;;4991994;28;20050;-76
2021/04/04 01:34:05;;;;;;;22.80;3.83;;;;;;;;;;4987317;28;20121;-77
2021/04/04 01:36:32;;;;;;;22.38;4.70;;;;;;;;;;4986278;28;20027;-75
2021/04/04 01:39:00;;;;;;;18.83;3.33;;;;;;;;;;4985441;28;20075;-75
2021/04/04 01:41:28;;;;;;;19.58;3.55;;;;;;;;;;4983613;28;20436;-76
2021/04/04 01:43:57;;;;;;;16.77;2.55;;;;;;;;;;4988674;28;20029;-75
2021/04/04 01:46:24;;;;;;;17.58;3.05;;;;;;;;;;4984664;28;20026;-75
2021/04/04 01:48:51;;;;;;;14.05;3.25;;;;;;;;;;4982752;28;20023;-75
2021/04/04 01:51:17;;;;;;;16.40;3.05;;;;;;;;;;4983961;28;20074;-75
2021/04/04 01:53:44;;;;;;;15.63;3.25;;;;;;;;;;4988927;28;20519;-75
2021/04/04 01:56:10;;;;;;;15.40;3.30;;;;;;;;;;4983518;28;20537;-75
2021/04/04 01:58:38;;;;;;;16.02;2.90;;;;;;;;;;4981715;28;20097;-76
2021/04/04 02:01:05;;;;;;;20.67;3.28;;;;;;;;;;4987530;28;20110;-75
2021/04/04 02:03:31;;;;;;;18.45;3.08;;;;;;;;;;4987158;28;20019;-76
2021/04/04 02:05:58;;;;;;;16.90;2.90;;;;;;;;;;4975434;28;20041;-76
2021/04/04 02:08:24;;;;;;;17.10;3.08;;;;;;;;;;4983535;28;20505;-75
2021/04/04 02:10:51;;;;;;;17.33;3.17;;;;;;;;;;4982706;28;20041;-74
2021/04/04 02:13:19;;;;;;;20.25;3.42;;;;;;;;;;4988225;28;20043;-75
2021/04/04 02:15:46;;;;;;;15.05;4.00;;;;;;;;;;4988790;28;20042;-76
2021/04/04 02:18:12;;;;;;;19.38;3.22;;;;;;;;;;4982409;28;20061;-75
2021/04/04 02:20:39;;;;;;;20.10;4.35;;;;;;;;;;4977369;28;20046;-76
2021/04/04 02:23:10;;;;;;;15.98;2.80;;;;;;;;;;4987103;28;20026;-76
2021/04/04 02:25:36;;;;;;;11.70;3.00;;;;;;;;;;4985431;28;20023;-76
2021/04/04 02:28:02;;;;;;;21.60;3.25;;;;;;;;;;4985905;28;20448;-77
2021/04/04 02:30:28;;;;;;;16.45;2.53;;;;;;;;;;4973209;28;20302;-76
2021/04/04 02:32:58;;;;;;;17.23;3.08;;;;;;;;;;4974841;28;20022;-76
2021/04/04 02:35:30;;;;;;;16.08;2.90;;;;;;;;;;4982496;28;20027;-75
2021/04/04 02:37:57;;;;;;;16.20;3.33;;;;;;;;;;4982329;28;20019;-75
2021/04/04 02:40:24;;;;;;;20.38;3.90;;;;;;;;;;4984820;28;20517;-76
2021/04/04 02:42:51;;;;;;;16.15;3.53;;;;;;;;;;4983802;28;20037;-76
2021/04/04 02:45:18;;;;;;;12.57;3.40;;;;;;;;;;4985524;28;20023;-75
2021/04/04 02:48:04;;;;;;;20.90;3.45;;;;;;;;;;4983453;28;20026;-74
2021/04/04 02:50:31;;;;;;;14.85;2.70;;;;;;;;;;4983840;28;20117;-74
2021/04/04 02:52:59;;;;;;;17.92;2.65;;;;;;;;;;4972190;28;20102;-76
2021/04/04 02:55:26;;;;;;;13.43;2.17;;;;;;;;;;4981972;28;20045;-76
2021/04/04 02:57:53;;;;;;;20.58;2.85;;;;;;;;;;4984662;28;20041;-75
2021/04/04 03:00:19;;;;;;;15.13;2.53;;;;;;;;;;4985119;28;20517;-75
2021/04/04 03:02:45;;;;;;;15.23;2.08;;;;;;;;;;4979772;28;20034;-75
2021/04/04 03:05:11;;;;;;;13.40;2.47;;;;;;;;;;4983318;28;20019;-75
2021/04/04 03:07:45;;;;;;;20.23;3.22;;;;;;;;;;4985171;28;20558;-76
2021/04/04 03:10:11;;;;;;;18.40;3.47;;;;;;;;;;4983162;28;20030;-75
2021/04/04 03:12:39;;;;;;;12.82;2.47;;;;;;;;;;4982418;28;20057;-78
2021/04/04 03:15:06;;;;;;;20.88;3.15;;;;;;;;;;4984062;28;20101;-76
2021/04/04 03:17:32;;;;;;;21.80;3.58;;;;;;;;;;4985860;28;20030;-76
2021/04/04 03:19:59;;;;;;;19.85;3.30;;;;;;;;;;4983735;28;20471;-75
2021/04/04 03:22:27;;;;;;;18.30;3.42;;;;;;;;;;4982897;28;20027;-76
2021/04/04 03:24:53;;;;;;;19.00;3.47;;;;;;;;;;4984614;28;20473;-75
2021/04/04 03:27:20;;;;;;;16.65;3.03;;;;;;;;;;4983505;28;20022;-77
2021/04/04 03:29:46;;;;;;;14.07;2.65;;;;;;;;;;4983689;28;20105;-76
2021/04/04 03:32:12;;;;;;;16.15;2.95;;;;;;;;;;4985581;28;20385;-75
2021/04/04 03:34:38;;;;;;;9.93;2.60;;;;;;;;;;4983127;28;20037;-75
2021/04/04 03:37:05;;;;;;;16.73;3.15;;;;;;;;;;4968665;28;20035;-76
2021/04/04 03:39:31;;;;;;;12.43;2.78;;;;;;;;;;4983455;28;20030;-76
2021/04/04 03:41:58;;;;;;;20.60;3.22;;;;;;;;;;4980844;28;20101;-76
2021/04/04 03:44:30;;;;;;;14.88;3.00;;;;;;;;;;4984586;28;20022;-73
2021/04/04 03:46:57;;;;;;;16.55;3.03;;;;;;;;;;4983179;28;20038;-73
2021/04/04 03:49:23;;;;;;;21.65;3.17;;;;;;;;;;4979600;28;20033;-72
2021/04/04 03:51:52;;;;;;;12.95;2.70;;;;;;;;;;4979775;28;20026;-72
2021/04/04 03:54:19;;;;;;;17.02;2.85;;;;;;;;;;4987791;28;20038;-73
2021/04/04 03:56:47;;;;;;;19.17;2.75;;;;;;;;;;4984802;28;20026;-73
2021/04/04 03:59:13;;;;;;;14.45;2.20;;;;;;;;;;4980951;28;20026;-75
2021/04/04 04:01:43;;;;;;;20.70;2.88;;;;;;;;;;4972406;28;20027;-73
2021/04/04 04:04:10;;;;;;;13.80;2.70;;;;;;;;;;4984709;28;20034;-75
2021/04/04 04:06:39;;;;;;;21.52;5.45;;;;;;;;;;4983895;28;20027;-76
2021/04/04 04:09:06;;;;;;;14.38;2.72;;;;;;;;;;4981903;28;20101;-75
2021/04/04 04:11:32;;;;;;;14.60;3.20;;;;;;;;;;4981330;28;20484;-76
2021/04/04 04:14:00;;;;;;;18.25;3.72;;;;;;;;;;4970384;28;20014;-76
2021/04/04 04:16:26;;;;;;;19.30;3.08;;;;;;;;;;4987717;28;20027;-76
2021/04/04 04:18:52;;;;;;;24.27;3.45;;;;;;;;;;4981201;28;20120;-76
2021/04/04 04:21:18;;;;;;;18.75;3.45;;;;;;;;;;4984223;28;20034;-75
2021/04/04 04:23:45;;;;;;;15.20;2.80;;;;;;;;;;4983958;28;20029;-75
2021/04/04 04:26:12;;;;;;;11.23;2.58;;;;;;;;;;4980462;28;20038;-75
2021/04/04 04:28:40;;;;;;;20.33;4.72;;;;;;;;;;4981447;28;20030;-76
2021/04/04 04:31:08;;;;;;;17.48;4.13;;;;;;;;;;4969477;28;20081;-76
2021/04/04 04:33:34;;;;;;;17.30;2.92;;;;;;;;;;4989128;28;20053;-76
2021/04/04 04:36:01;;;;;;;20.70;4.20;;;;;;;;;;4983401;28;20037;-76
2021/04/04 04:38:27;;;;;;;22.88;2.75;;;;;;;;;;4970706;28;20034;-75
2021/04/04 04:40:55;;;;;;;15.73;4.20;;;;;;;;;;4975080;28;20033;-76
2021/04/04 04:43:21;;;;;;;26.45;3.97;;;;;;;;;;4988184;28;20034;-76
2021/04/04 04:45:47;;;;;;;13.15;2.83;;;;;;;;;;4989643;28;20031;-76
2021/04/04 04:48:14;;;;;;;18.30;3.40;;;;;;;;;;4989089;28;20081;-75
2021/04/04 04:50:42;;;;;;;17.98;2.65;;;;;;;;;;4994164;28;20097;-75
2021/04/04 04:53:08;;;;;;;15.55;2.72;;;;;;;;;;4993058;28;20081;-75
2021/04/04 04:55:35;;;;;;;18.92;3.53;;;;;;;;;;4994983;28;20034;-75
2021/04/04 04:58:01;;;;;;;12.30;2.00;;;;;;;;;;4988626;28;20050;-74
2021/04/04 05:00:28;;;;;;;12.85;3.22;;;;;;;;;;4992375;28;20056;-75
2021/04/04 05:02:54;;;;;;;25.42;3.45;;;;;;;;;;4994182;28;20370;-75
2021/04/04 05:05:21;;;;;;;10.95;2.75;;;;;;;;;;4989154;28;20026;-74
2021/04/04 05:07:47;;;;;;;16.00;2.70;;;;;;;;;;4992132;28;20022;-75
2021/04/04 05:10:14;;;;;;;12.90;2.72;;;;;;;;;;4994475;28;20034;-75
2021/04/04 05:12:45;;;;;;;14.77;3.03;;;;;;;;;;4994290;28;20022;-75
2021/04/04 05:15:11;;;;;;;19.00;2.58;;;;;;;;;;4994461;28;20121;-75
2021/04/04 05:17:38;;;;;;;15.80;3.15;;;;;;;;;;4975497;28;20125;-75
2021/04/04 05:20:05;;;;;;;12.38;2.92;;;;;;;;;;4994201;28;20126;-75
2021/04/04 05:22:31;;;;;;;13.48;2.50;;;;;;;;;;4993551;28;20115;-74
2021/04/04 05:24:58;;;;;;;16.48;3.15;;;;;;;;;;4994403;28;20030;-75
2021/04/04 05:27:24;;;;;;;13.00;3.05;;;;;;;;;;4992552;28;20026;-75
2021/04/04 05:29:50;;;;;;;10.82;2.60;;;;;;;;;;4993777;28;20027;-74
2021/04/04 05:32:16;;;;;;;15.23;3.20;;;;;;;;;;4993864;28;20108;-75
2021/04/04 05:34:42;;;;;;;10.73;2.20;;;;;;;;;;4993257;28;20567;-75
2021/04/04 05:37:09;;;;;;;14.90;3.13;;;;;;;;;;4981523;28;20499;-76
2021/04/04 05:39:37;;;;;;;19.95;3.10;;;;;;;;;;4993206;28;20121;-75
2021/04/04 05:42:07;;;;;;;14.45;2.42;;;;;;;;;;4993112;28;20113;-75
2021/04/04 05:44:40;;;;;;;13.30;2.65;;;;;;;;;;4984340;28;20030;-76
2021/04/04 05:47:19;;;;;;;12.63;2.70;;;;;;;;;;4992835;28;20018;-75
2021/04/04 05:50:01;;;;;;;13.18;3.60;;;;;;;;;;4979176;28;20038;-75
2021/04/04 05:52:53;;;;;;;14.63;2.67;;;;;;;;;;4994061;28;20609;-76
2021/04/04 05:55:28;;;;;;;12.70;2.60;;;;;;;;;;4972437;28;20053;-76
2021/04/04 05:57:56;;;;;;;18.35;3.10;;;;;;;;;;4985679;28;20121;-75
2021/04/04 06:00:24;;;;;;;10.57;2.97;;;;;;;;;;4993563;28;20049;-75
2021/04/04 06:03:17;;;;;;;10.18;2.78;;;;;;;;;;4992635;28;20081;-74
2021/04/04 06:05:59;;;;;;;13.13;3.42;;;;;;;;;;4989130;28;20037;-75
2021/04/04 06:08:37;;;;;;;14.98;2.80;;;;;;;;;;4989149;28;20034;-74
2021/04/04 06:11:22;;;;;;;11.57;2.35;;;;;;;;;;4992678;28;20496;-75
2021/04/04 06:14:01;;;;;;;18.13;2.60;;;;;;;;;;4988975;28;20053;-75
2021/04/04 06:16:30;;;;;;;14.85;2.85;;;;;;;;;;4991134;28;20022;-76
2021/04/04 06:19:15;;;;;;;8.77;2.60;;;;;;;;;;4992415;28;20057;-75
2021/04/04 06:21:49;;;;;;;12.57;2.47;;;;;;;;;;4985184;28;20492;-74
2021/04/04 06:24:17;;;;;;;16.02;2.55;;;;;;;;;;4991637;28;20097;-75
2021/04/04 06:26:46;;;;;;;14.43;3.22;;;;;;;;;;4991294;28;20047;-76
2021/04/04 06:29:19;;;;;;;16.00;2.58;;;;;;;;;;4991707;28;20022;-74
2021/04/04 06:32:03;;;;;;;12.50;2.70;;;;;;;;;;4990347;28;20046;-75
2021/04/04 06:34:41;;;;;;;11.55;2.80;;;;;;;;;;4991067;28;20026;-75
2021/04/04 06:37:26;;;;;;;12.90;3.45;;;;;;;;;;4990645;28;20022;-75
2021/04/04 06:40:03;;;;;;;13.25;3.03;;;;;;;;;;4987440;28;20038;-76
2021/04/04 06:42:48;;;;;;;12.63;3.08;;;;;;;;;;4988572;28;20030;-76
2021/04/04 06:45:32;;;;;;;19.63;3.63;;;;;;;;;;4988928;28;20037;-76
2021/04/04 06:48:17;;;;;;;12.13;2.90;;;;;;;;;;4985304;28;20030;-76
2021/04/04 06:50:46;;;;;;;15.75;3.35;;;;;;;;;;4980498;28;20042;-75
2021/04/04 06:53:31;;;;;;;15.82;2.60;;;;;;;;;;4990994;28;20493;-76
2021/04/04 06:56:00;;;;;;;11.05;2.38;;;;;;;;;;4992174;28;20023;-75
2021/04/04 06:58:29;;;;;;;10.07;2.50;;;;;;;;;;4986871;28;20026;-75
2021/04/04 07:01:12;;;;;;;13.90;2.55;;;;;;;;;;4991420;28;20018;-74
2021/04/04 07:03:48;;;;;;;9.15;2.40;;;;;;;;;;4975979;28;20132;-74
2021/04/04 07:06:28;;;;;;;11.73;2.30;;;;;;;;;;4981842;28;20563;-74
2021/04/04 07:09:13;;;;;;;7.88;2.15;;;;;;;;;;4979042;28;20022;-74
2021/04/04 07:11:57;;;;;;;11.48;2.38;;;;;;;;;;4989499;28;20057;-75
2021/04/04 07:14:29;;;;;;;15.60;2.60;;;;;;;;;;4990116;28;20030;-74
2021/04/04 07:17:14;;;;;;;10.32;2.42;;;;;;;;;;4985038;28;20053;-75
2021/04/04 07:19:59;;;;;;;9.65;2.20;;;;;;;;;;4990763;28;20039;-74
2021/04/04 07:22:31;;;;;;;10.25;2.53;;;;;;;;;;4985318;28;20014;-75
2021/04/04 07:25:08;;;;;;;6.38;1.88;;;;;;;;;;4989984;28;20026;-75
2021/04/04 07:27:53;;;;;;;9.07;2.25;;;;;;;;;;4987952;28;20117;-75
2021/04/04 07:30:36;;;;;;;8.98;2.20;;;;;;;;;;4979736;28;20050;-76
2021/04/04 07:33:16;;;;;;;15.95;2.65;;;;;;;;;;4985017;28;20026;-76
2021/04/04 07:35:55;;;;;;;8.77;1.80;;;;;;;;;;4973719;28;20027;-77
2021/04/04 07:38:32;;;;;;;10.15;2.40;;;;;;;;;;4988651;28;20033;-75
2021/04/04 07:41:06;;;;;;;9.73;1.92;;;;;;;;;;4979974;28;20062;-76
2021/04/04 07:43:46;;;;;;;8.65;2.15;;;;;;;;;;4992305;28;20038;-76
2021/04/04 07:46:14;;;;;;;6.68;1.90;;;;;;;;;;4990642;28;20014;-75
2021/04/04 07:48:59;;;;;;;9.63;1.92;;;;;;;;;;4988431;28;20031;-75
2021/04/04 07:51:28;;;;;;;11.07;2.75;;;;;;;;;;4990740;28;20057;-75
2021/04/04 07:54:29;;;;;;;12.45;2.22;;;;;;;;;;4990400;28;20022;-75
2021/04/04 07:56:55;;;;;;;10.20;2.40;;;;;;;;;;4929971;29;20039;-76
2021/04/04 07:59:31;;;;;;;10.52;2.30;;;;;;;;;;4977149;28;20050;-75
2021/04/04 08:02:04;;;;;;;11.85;2.30;;;;;;;;;;4988846;28;20022;-75
2021/04/04 08:04:44;;;;;;;12.93;2.60;;;;;;;;;;4984920;28;20097;-75
2021/04/04 08:07:34;;;;;;;10.20;2.42;;;;;;;;;;4979791;28;20034;-75
2021/04/04 08:10:07;;;;;;;8.07;2.13;;;;;;;;;;4967815;28;20234;-75
2021/04/04 08:12:44;;;;;;;7.88;2.17;;;;;;;;;;4969000;28;20034;-75
2021/04/04 08:15:15;;;;;;;10.75;2.17;;;;;;;;;;4989873;28;20076;-75
2021/04/04 08:17:41;;;;;;;7.68;2.15;;;;;;;;;;4987928;28;20036;-75
2021/04/04 08:20:25;;;;;;;11.20;1.92;;;;;;;;;;4990499;28;20455;-75
2021/04/04 08:23:00;;;;;;;12.10;2.03;;;;;;;;;;4988674;28;20031;-75
2021/04/04 08:25:33;;;;;;;7.00;2.03;;;;;;;;;;4984571;28;20556;-75
2021/04/04 08:28:04;;;;;;;6.53;1.95;;;;;;;;;;4989128;28;20031;-75
2021/04/04 08:30:36;;;;;;;11.48;1.88;;;;;;;;;;4988820;28;20122;-74
2021/04/04 08:33:14;;;;;;;8.68;2.25;;;;;;;;;;4987030;28;20042;-75
2021/04/04 08:35:43;;;;;;;11.65;2.45;;;;;;;;;;4989170;28;20511;-75
2021/04/04 08:38:28;;;;;;;6.78;1.70;;;;;;;;;;4985795;28;20045;-74
2021/04/04 08:40:58;;;;;;;7.97;1.70;;;;;;;;;;4990113;28;20054;-76
2021/04/04 08:43:25;;;;;;;16.30;2.30;;;;;;;;;;4988208;28;20027;-75
2021/04/04 08:45:59;;;;;;;10.63;2.95;;;;;;;;;;4988426;28;20085;-75
2021/04/04 08:48:26;;;;;;;5.22;1.65;;;;;;;;;;4985196;28;20033;-76
2021/04/04 08:50:53;;;;;;;12.00;2.05;;;;;;;;;;4990683;28;20057;-74
2021/04/04 08:53:19;;;;;;;9.55;1.65;;;;;;;;;;4989174;28;20154;-74
2021/04/04 08:55:47;;;;;;;8.07;1.60;;;;;;;;;;4989879;28;20053;-74
2021/04/04 08:58:16;;;;;;;5.47;1.33;;;;;;;;;;4989506;28;20037;-74
2021/04/04 09:00:42;;;;;;;6.32;1.70;;;;;;;;;;4986815;28;20113;-74
2021/04/04 09:03:27;;;;;;;10.75;2.53;;;;;;;;;;4994671;28;20023;-74
2021/04/04 09:06:01;;;;;;;8.55;1.83;;;;;;;;;;4979020;28;20030;-74
2021/04/04 09:08:27;;;;;;;8.40;1.77;;;;;;;;;;4983113;28;20112;-74
2021/04/04 09:10:54;;;;;;;8.55;1.70;;;;;;;;;;4986528;28;20057;-74
2021/04/04 09:13:21;;;;;;;4.70;2.00;;;;;;;;;;4992428;28;20026;-74
2021/04/04 09:15:47;;;;;;;6.68;1.77;;;;;;;;;;4985463;28;20022;-74
2021/04/04 09:18:14;;;;;;;6.78;1.98;;;;;;;;;;4986325;28;20030;-75
2021/04/04 09:20:43;;;;;;;10.77;2.25;;;;;;;;;;4986714;28;20033;-74
2021/04/04 09:23:10;;;;;;;10.20;2.25;;;;;;;;;;4989527;28;20014;-74
2021/04/04 09:25:37;;;;;;;8.18;1.98;;;;;;;;;;4986066;28;20033;-75
2021/04/04 09:28:10;;;;;;;5.25;1.42;;;;;;;;;;4990655;28;20444;-73
2021/04/04 09:30:40;;;;;;;4.57;1.17;;;;;;;;;;4988147;28;20062;-74
2021/04/04 09:33:14;;;;;;;7.00;1.77;;;;;;;;;;4991512;28;20041;-74
2021/04/04 09:35:41;;;;;;;4.15;1.95;;;;;;;;;;4988027;28;20019;-74
2021/04/04 09:38:12;;;;;;;3.97;1.45;;;;;;;;;;4983306;28;20118;-73
2021/04/04 09:40:40;;;;;;;4.03;1.50;;;;;;;;;;4987901;28;20169;-74
2021/04/04 09:43:10;;;;;;;6.47;1.60;;;;;;;;;;4982510;28;20023;-74
2021/04/04 09:45:36;;;;;;;7.28;1.98;;;;;;;;;;4983549;28;20278;-74
2021/04/04 09:48:22;;;;;;;7.32;1.63;;;;;;;;;;4978635;28;20031;-72
2021/04/04 09:50:49;;;;;;;6.28;1.65;;;;;;;;;;4979284;28;20405;-73
2021/04/04 09:53:34;;;;;;;6.53;1.88;;;;;;;;;;4961457;28;20031;-73
2021/04/04 09:56:07;;;;;;;8.00;1.55;;;;;;;;;;4978608;28;20038;-73
2021/04/04 09:58:34;;;;;;;6.10;1.45;;;;;;;;;;4974668;28;20041;-74
2021/04/04 10:01:01;;;;;;;15.57;2.13;;;;;;;;;;4977950;28;20027;-74
2021/04/04 10:03:27;;;;;;;6.43;1.90;;;;;;;;;;4978460;28;20037;-74
2021/04/04 10:05:53;;;;;;;6.72;1.60;;;;;;;;;;4978325;28;20033;-74
2021/04/04 10:08:23;;;;;;;4.03;1.45;;;;;;;;;;4982702;28;21663;-74
2021/04/04 10:10:53;;;;;;;5.40;1.60;;;;;;;;;;4977543;28;20038;-74
2021/04/04 10:13:24;;;;;;;3.95;1.50;;;;;;;;;;4977439;28;20121;-74
2021/04/04 10:15:51;;;;;;;4.30;1.60;;;;;;;;;;4977274;28;20026;-74
2021/04/04 10:18:18;;;;;;;7.15;1.77;;;;;;;;;;4973185;28;20045;-73
2021/04/04 10:20:48;;;;;;;5.72;1.40;;;;;;;;;;4958201;28;20030;-73
2021/04/04 10:23:15;;;;;;;8.70;2.65;;;;;;;;;;4958705;28;20037;-74
2021/04/04 10:26:16;;;;;;;5.50;2.00;;;;;;;;;;4973813;28;20030;-74
2021/04/04 10:28:43;;;;;;;8.70;1.90;;;;;;;;;;4896671;29;20106;-74
2021/04/04 10:31:10;;;;;;;6.38;2.25;;;;;;;;;;4946598;28;20051;-73
2021/04/04 10:33:36;;;;;;;7.90;1.95;;;;;;;;;;4975465;28;20033;-73
2021/04/04 10:36:17;;;;;;;6.07;1.88;;;;;;;;;;4957063;28;20062;-74
2021/04/04 10:38:44;;;;;;;6.55;1.50;;;;;;;;;;4973479;28;20022;-74
2021/04/04 10:41:10;;;;;;;9.52;1.65;;;;;;;;;;4954501;28;20046;-75
2021/04/04 10:43:36;;;;;;;6.18;1.75;;;;;;;;;;4956651;28;20038;-74
2021/04/04 10:46:06;;;;;;;6.97;2.05;;;;;;;;;;4971632;28;20026;-74
2021/04/04 10:48:33;;;;;;;9.05;2.03;;;;;;;;;;4980944;28;20512;-74
2021/04/04 10:51:00;;;;;;;5.93;1.63;;;;;;;;;;4989493;28;20038;-74
2021/04/04 10:53:26;;;;;;;6.55;1.80;;;;;;;;;;4991808;28;20026;-74
2021/04/04 10:55:52;;;;;;;4.43;1.75;;;;;;;;;;4990591;28;20084;-74
2021/04/04 10:58:22;;;;;;;5.00;1.38;;;;;;;;;;4983360;28;20045;-74
2021/04/04 11:00:48;;;;;;;12.48;2.78;;;;;;;;;;4989128;28;20030;-74
2021/04/04 11:03:14;;;;;;;11.85;2.28;;;;;;;;;;4987544;28;20393;-74
2021/04/04 11:05:40;;;;;;;11.95;1.77;;;;;;;;;;4995205;28;20559;-73
2021/04/04 11:08:07;;;;;;;5.65;1.95;;;;;;;;;;4987164;28;20049;-74
2021/04/04 11:10:33;;;;;;;7.72;1.60;;;;;;;;;;4983469;28;20031;-74
2021/04/04 11:13:00;;;;;;;8.23;2.00;;;;;;;;;;4989028;28;20026;-73
2021/04/04 11:15:27;;;;;;;9.18;1.67;;;;;;;;;;4986363;28;20084;-74
2021/04/04 11:17:53;;;;;;;13.30;2.70;;;;;;;;;;4971863;28;20026;-73
2021/04/04 11:20:20;;;;;;;7.00;2.92;;;;;;;;;;4980980;28;20034;-73
2021/04/04 11:22:47;;;;;;;7.65;1.80;;;;;;;;;;4972169;28;20092;-73
2021/04/04 11:25:16;;;;;;;8.25;1.73;;;;;;;;;;4990596;28;20058;-74
2021/04/04 11:27:45;;;;;;;11.07;2.20;;;;;;;;;;4973669;28;20022;-74
2021/04/04 11:30:15;;;;;;;7.45;2.25;;;;;;;;;;4990815;28;20473;-73
2021/04/04 11:32:45;;;;;;;12.75;2.20;;;;;;;;;;4992534;28;20030;-74
2021/04/04 11:35:12;;;;;;;6.93;2.20;;;;;;;;;;4989785;28;20037;-75
2021/04/04 11:37:39;;;;;;;8.77;2.00;;;;;;;;;;4983606;28;20029;-73
2021/04/04 11:40:20;;;;;;;14.63;2.67;;;;;;;;;;4987909;28;20038;-74
2021/04/04 11:42:48;;;;;;;7.93;1.95;;;;;;;;;;4988848;28;20106;-74
2021/04/04 11:45:14;;;;;;;9.45;2.03;;;;;;;;;;4989666;28;20028;-74
2021/04/04 11:47:41;;;;;;;10.05;2.05;;;;;;;;;;4969383;28;20026;-73
2021/04/04 11:50:23;;;;;;;11.30;2.10;;;;;;;;;;4986220;28;20034;-74
2021/04/04 11:52:49;;;;;;;8.85;1.98;;;;;;;;;;4985903;28;20026;-73
2021/04/04 11:55:16;;;;;;;10.48;2.45;;;;;;;;;;4988597;28;20035;-74
2021/04/04 11:57:44;;;;;;;13.07;2.80;;;;;;;;;;4985111;28;20489;-73
2021/04/04 12:00:13;;;;;;;16.50;3.13;;;;;;;;;;4988071;28;20477;-73
2021/04/04 12:02:40;;;;;;;11.50;2.75;;;;;;;;;;4987913;28;20027;-74
2021/04/04 12:05:09;;;;;;;11.90;2.28;;;;;;;;;;4988321;28;20014;-74
2021/04/04 12:07:55;;;;;;;11.35;2.50;;;;;;;;;;4983942;28;20065;-73
2021/04/04 12:10:23;;;;;;;11.02;2.20;;;;;;;;;;4970672;28;20030;-73
2021/04/04 12:12:49;;;;;;;7.35;1.70;;;;;;;;;;4988218;28;20038;-74
2021/04/04 12:15:16;;;;;;;10.48;2.17;;;;;;;;;;4989712;28;20037;-72
2021/04/04 12:18:01;;;;;;;7.05;1.80;;;;;;;;;;4970114;28;20374;-73
2021/04/04 12:20:28;;;;;;;4.78;1.90;;;;;;;;;;4987503;28;20097;-74
2021/04/04 12:22:54;;;;;;;5.25;2.20;;;;;;;;;;4971860;28;20118;-73
2021/04/04 12:25:22;;;;;;;7.30;2.30;;;;;;;;;;4989740;28;20045;-74
2021/04/04 12:27:49;;;;;;;7.53;2.17;;;;;;;;;;4987151;28;20026;-75
2021/04/04 12:30:22;;;;;;;20.73;2.25;;;;;;;;;;4983266;28;20054;-73
2021/04/04 12:32:48;;;;;;;8.23;1.50;;;;;;;;;;4988499;28;20030;-74
2021/04/04 12:35:22;;;;;;;9.25;2.60;;;;;;;;;;4990365;28;20795;-73
2021/04/04 12:37:48;;;;;;;9.52;1.60;;;;;;;;;;4986421;28;20559;-74
2021/04/04 12:40:14;;;;;;;5.15;1.45;;;;;;;;;;4986175;28;20037;-74
2021/04/04 12:42:40;;;;;;;9.45;2.10;;;;;;;;;;4987924;28;20041;-75
2021/04/04 12:45:10;;;;;;;5.28;1.67;;;;;;;;;;4986813;28;20377;-74
2021/04/04 12:47:40;;;;;;;7.15;1.73;;;;;;;;;;4986351;28;20026;-74
2021/04/04 12:50:07;;;;;;;9.95;2.60;;;;;;;;;;4989366;28;20407;-73
2021/04/04 12:52:34;;;;;;;6.50;1.48;;;;;;;;;;4989949;28;20022;-73
2021/04/04 12:55:10;;;;;;;9.50;2.25;;;;;;;;;;4989779;28;20101;-72
2021/04/04 12:57:36;;;;;;;7.45;1.95;;;;;;;;;;4985256;28;20040;-73
2021/04/04 13:00:02;;;;;;;8.23;1.90;;;;;;;;;;4986230;28;20066;-72
2021/04/04 13:02:28;;;;;;;8.15;1.88;;;;;;;;;;4991729;28;20050;-73
2021/04/04 13:04:57;;;;;;;12.68;2.20;;;;;;;;;;4974030;28;20034;-74
2021/04/04 13:07:24;;;;;;;8.27;2.05;;;;;;;;;;4988608;28;20026;-74
2021/04/04 13:09:51;;;;;;;12.18;1.92;;;;;;;;;;4993482;28;20019;-73
2021/04/04 13:12:20;;;;;;;7.32;1.90;;;;;;;;;;4993147;28;20496;-72
2021/04/04 13:14:46;;;;;;;12.52;2.67;;;;;;;;;;4976607;28;20045;-73
2021/04/04 13:17:12;;;;;;;9.98;1.92;;;;;;;;;;4989492;28;20045;-74
2021/04/04 13:19:40;;;;;;;8.00;4.15;;;;;;;;;;4992239;28;20034;-75
2021/04/04 13:22:06;;;;;;;8.60;2.05;;;;;;;;;;4991592;28;20553;-74
2021/04/04 13:24:32;;;;;;;4.43;1.65;;;;;;;;;;4990951;28;20026;-72
2021/04/04 13:26:58;;;;;;;7.40;2.08;;;;;;;;;;4970962;28;20273;-72
2021/04/04 13:29:37;;;;;;;7.85;2.08;;;;;;;;;;4970969;28;20038;-72
2021/04/04 13:32:03;;;;;;;10.30;2.20;;;;;;;;;;4993079;28;20375;-72
2021/04/04 13:34:36;;;;;;;4.88;1.77;;;;;;;;;;4989063;28;20023;-73
2021/04/04 13:37:02;;;;;;;9.25;2.13;;;;;;;;;;4986715;28;20027;-73
2021/04/04 13:39:36;;;;;;;6.75;2.05;;;;;;;;;;4989017;28;20085;-73
2021/04/04 13:42:02;;;;;;;8.32;2.00;;;;;;;;;;4992213;28;20022;-73
2021/04/04 13:44:29;;;;;;;5.80;2.38;;;;;;;;;;4991842;28;20117;-73
2021/04/04 13:46:55;;;;;;;5.88;1.77;;;;;;;;;;4990031;28;20030;-74
2021/04/04 13:49:22;;;;;;;8.63;2.15;;;;;;;;;;4991277;28;20023;-74
2021/04/04 13:51:48;;;;;;;8.52;1.85;;;;;;;;;;4992695;28;20134;-73
2021/04/04 13:54:22;;;;;;;4.97;1.55;;;;;;;;;;4972926;28;20408;-75
2021/04/04 13:56:48;;;;;;;6.47;1.98;;;;;;;;;;4988342;28;20069;-76
2021/04/04 13:59:14;;;;;;;9.40;2.38;;;;;;;;;;4990583;28;20034;-74
2021/04/04 14:01:59;;;;;;;5.63;2.20;;;;;;;;;;4984308;28;20037;-73
2021/04/04 14:04:25;;;;;;;7.03;1.88;;;;;;;;;;4993034;28;20018;-73
2021/04/04 14:06:53;;;;;;;5.78;1.92;;;;;;;;;;4967476;28;20583;-73
2021/04/04 14:09:19;;;;;;;5.72;1.88;;;;;;;;;;4991861;28;20037;-73
2021/04/04 14:11:45;;;;;;;6.43;2.20;;;;;;;;;;4990239;28;20027;-74
2021/04/04 14:14:12;;;;;;;6.63;1.92;;;;;;;;;;4988414;28;20049;-74
2021/04/04 14:16:38;;;;;;;7.70;1.98;;;;;;;;;;4996684;28;20318;-74
2021/04/04 14:19:05;;;;;;;13.48;2.50;;;;;;;;;;4988732;28;20033;-73
2021/04/04 14:21:31;;;;;;;6.45;2.40;;;;;;;;;;4992697;28;20022;-75
2021/04/04 14:23:57;;;;;;;7.70;1.92;;;;;;;;;;4998036;28;20022;-75
2021/04/04 14:26:23;;;;;;;4.95;2.42;;;;;;;;;;4988505;28;20034;-70
2021/04/04 14:28:50;;;;;;;7.55;1.90;;;;;;;;;;4988186;28;20539;-72
2021/04/04 14:31:16;;;;;;;5.68;1.52;;;;;;;;;;4983460;28;20294;-73
2021/04/04 14:33:42;;;;;;;7.13;2.05;;;;;;;;;;4972337;28;20727;-73
2021/04/04 14:36:09;;;;;;;6.60;1.60;;;;;;;;;;4974071;28;20031;-71
2021/04/04 14:38:36;;;;;;;6.00;1.95;;;;;;;;;;4970209;28;20054;-72
2021/04/04 14:41:03;;;;;;;9.13;1.55;;;;;;;;;;4970752;28;20496;-73
2021/04/04 14:43:33;;;;;;;7.20;2.22;;;;;;;;;;4972331;28;20030;-73
2021/04/04 14:46:00;;;;;;;4.90;1.67;;;;;;;;;;4969273;28;20042;-73
2021/04/04 14:48:27;;;;;;;6.60;1.50;;;;;;;;;;4971358;28;20022;-73
2021/04/04 14:50:53;;;;;;;5.95;1.73;;;;;;;;;;4964966;28;20125;-73